Delphinus — CUFD8 — position and weather

sailwx.info

Track history (hours):
 
Tides and Currents Weather Stations Pressure Air Temp Water Temp Dewpoint Dewpoint Depression Visibility Wind Speed Wind Dir Waves Ship Positions

Delphinus

Last reported at 2018-Jan-31 17:43 UTC. Time now 2018-Feb-25 08:20 UTC.
Position N 39°21' W 009°22'.
Warning: this ship's position is 24 days out of date.

Length 28 m; draft 4.2 m.

Type: Fishing. MMSI: 263410880.

Date/timePositionNaut miles runAvg speedWind from/ knotsBaromVisibWave heightAir tempDewpointWater temp
2018-Jan-31 17:43N 39°21' W 009°22'0 0.2
2018-Jan-31 17:30N 39°21' W 009°22'0 0.0
2018-Jan-31 17:00N 39°21' W 009°22'0 0.0
2018-Jan-31 16:26N 39°21' W 009°22'0 0.0
2018-Jan-31 16:00N 39°21' W 009°22'0 0.0
2018-Jan-31 15:30N 39°21' W 009°22'0 0.0
2018-Jan-31 14:59N 39°21' W 009°22'0 0.0
2018-Jan-31 14:30N 39°21' W 009°22'13 8.7
2018-Jan-31 13:00N 39°09' W 009°28'510.5
2018-Jan-31 12:30N 39°04' W 009°31'510.7
2018-Jan-31 12:00N 38°60' W 009°34'3 6.3
2018-Jan-31 11:30N 38°57' W 009°36'2 4.2
2018-Jan-31 11:00N 38°58' W 009°38'2 3.7
2018-Jan-31 10:30N 38°59' W 009°41'2 4.4
2018-Jan-31 10:00N 38°57' W 009°41'2 4.4
2018-Jan-31 09:30N 38°55' W 009°42'2 4.8
2018-Jan-31 09:00N 38°53' W 009°45'2 3.6
2018-Jan-31 08:30N 38°52' W 009°43'2 4.1
2018-Jan-31 08:00N 38°51' W 009°41'2 3.9
2018-Jan-31 07:30N 38°49' W 009°40'2 3.2
2018-Jan-31 07:00N 38°48' W 009°39'1 1.9
2018-Jan-31 06:30N 38°47' W 009°38'3 5.3
2018-Jan-31 06:00N 38°44' W 009°37'4 7.1
2018-Jan-31 05:30N 38°41' W 009°36'4 7.3
2018-Jan-31 05:00N 38°38' W 009°34'4 7.6
2018-Jan-31 04:30N 38°34' W 009°33'4 8.7
2018-Jan-31 04:00N 38°30' W 009°31'510.0
2018-Jan-31 03:30N 38°25' W 009°29'510.4
2018-Jan-31 03:00N 38°20' W 009°27'510.2
2018-Jan-31 02:30N 38°15' W 009°25'510.4
2018-Jan-31 02:00N 38°10' W 009°23'510.3
2018-Jan-31 01:30N 38°05' W 009°21'510.5
2018-Jan-31 01:00N 38°00' W 009°19'1010.3
2018-Jan-31 00:00N 37°51' W 009°15'510.3
2018-Jan-30 23:30N 37°46' W 009°13'4 7.0
2018-Jan-30 23:00N 37°42' W 009°11'2 3.1
2018-Jan-30 22:30N 37°41' W 009°12'4 3.9
2018-Jan-30 21:27N 37°37' W 009°11'4 4.5
2018-Jan-30 20:35N 37°33' W 009°11'0 2.8
2018-Jan-30 20:30N 37°33' W 009°11'39 2.1
2018-Jan-30 01:45N 37°01' W 008°44'310.6
2018-Jan-30 01:30N 37°02' W 008°41'510.7
2018-Jan-30 01:00N 37°05' W 008°35'4 8.3
2018-Jan-30 00:29N 37°08' W 008°32'0 0.1
2018-Jan-29 23:59N 37°08' W 008°32'0 0.0
2018-Jan-29 23:31N 37°08' W 008°32'0 0.0
2018-Jan-29 23:00N 37°08' W 008°32'0 0.0
2018-Jan-29 22:30N 37°08' W 008°32'0 0.0
2018-Jan-29 22:00N 37°08' W 008°32'0 0.0
2018-Jan-29 21:30N 37°08' W 008°32'0 0.0
2018-Jan-29 21:00N 37°08' W 008°32'0 0.0
2018-Jan-29 20:30N 37°08' W 008°32'0 0.0
2018-Jan-29 20:00N 37°08' W 008°32'0 0.0
2018-Jan-29 19:30N 37°08' W 008°32'0 0.0
2018-Jan-29 19:00N 37°08' W 008°32'0 0.0
2018-Jan-29 18:30N 37°08' W 008°32'0 0.0
2018-Jan-29 18:00N 37°08' W 008°32'0 0.0
2018-Jan-29 17:27N 37°08' W 008°32'0 0.0
2018-Jan-29 16:59N 37°08' W 008°32'0 0.0
2018-Jan-29 16:30N 37°08' W 008°32'0 0.0
2018-Jan-29 16:00N 37°08' W 008°32'0 0.1
2018-Jan-29 15:30N 37°08' W 008°32'0 0.0
2018-Jan-29 15:00N 37°08' W 008°32'0 0.0
2018-Jan-29 14:30N 37°08' W 008°32'0 0.0
2018-Jan-29 14:00N 37°08' W 008°32'0 0.0
2018-Jan-29 13:30N 37°08' W 008°32'0 0.0
2018-Jan-29 12:59N 37°08' W 008°32'0 0.0
2018-Jan-29 12:26N 37°08' W 008°32'0 0.0
2018-Jan-29 11:59N 37°08' W 008°32'4 8.1
2018-Jan-29 11:27N 37°04' W 008°30'510.6
2018-Jan-29 10:58N 37°00' W 008°25'2 2.6
2018-Jan-29 10:11N 36°58' W 008°27'1 3.9
2018-Jan-29 09:53N 36°58' W 008°28'4 3.9
2018-Jan-29 08:58N 36°56' W 008°31'7 2.1
2018-Jan-29 05:32N 37°03' W 008°32'010.5
2018-Jan-29 05:30N 37°03' W 008°32'5 9.4
2018-Jan-29 05:00N 37°08' W 008°32'0 0.2
2018-Jan-29 04:28N 37°08' W 008°32'0 0.0
2018-Jan-29 04:01N 37°08' W 008°32'0 0.0
2018-Jan-29 03:30N 37°08' W 008°32'0 0.0
2018-Jan-29 02:54N 37°08' W 008°32'0 0.0
2018-Jan-29 01:39N 37°08' W 008°32'0 0.0
2018-Jan-29 01:24N 37°08' W 008°32'0 0.0
2018-Jan-29 00:51N 37°08' W 008°32'0 0.0
2018-Jan-29 00:30N 37°08' W 008°32'4 8.4
2018-Jan-29 00:00N 37°04' W 008°30'510.3
2018-Jan-28 23:30N 36°59' W 008°27'2 3.6
2018-Jan-28 22:58N 36°59' W 008°25'4 3.9
2018-Jan-28 21:50N 36°57' W 008°20'3 0.8
2018-Jan-28 17:52N 36°58' W 008°16'22 0.6
2018-Jan-27 05:29N 36°59' W 008°44'6 9.8
2018-Jan-27 04:53N 37°03' W 008°38'4 9.7
2018-Jan-27 04:30N 37°05' W 008°34'4 0.3
2018-Jan-26 16:25N 37°08' W 008°32'0 0.0
2018-Jan-26 16:00N 37°08' W 008°32'0 0.0
2018-Jan-26 15:24N 37°08' W 008°32'0 0.0
2018-Jan-26 15:00N 37°08' W 008°32'0 0.0
2018-Jan-26 14:27N 37°08' W 008°32'3 6.4
2018-Jan-26 13:56N 37°05' W 008°31'3 0.2
2018-Jan-25 20:08N 37°07' W 008°32'1 2.4
2018-Jan-25 19:54N 37°08' W 008°32'0 0.0
2018-Jan-25 19:30N 37°08' W 008°32'0 0.0
2018-Jan-25 18:58N 37°08' W 008°32'0 0.0
2018-Jan-25 18:30N 37°08' W 008°32'0 0.0
2018-Jan-25 18:00N 37°08' W 008°32'0 0.0
2018-Jan-25 17:29N 37°08' W 008°32'0 0.0
2018-Jan-25 16:58N 37°08' W 008°32'0 0.0
2018-Jan-25 16:30N 37°08' W 008°32'0 0.0
2018-Jan-25 15:56N 37°08' W 008°32'0 0.0
2018-Jan-25 14:48N 37°08' W 008°32'0 0.0
2018-Jan-25 14:27N 37°08' W 008°32'0 0.0
2018-Jan-25 14:00N 37°08' W 008°32'0 0.0
2018-Jan-25 13:29N 37°08' W 008°32'3 7.1
2018-Jan-25 13:00N 37°05' W 008°31'5 0.5
2018-Jan-25 04:15N 37°00' W 008°32'2 4.4
2018-Jan-25 03:50N 37°01' W 008°34'5 6.5
2018-Jan-25 03:03N 36°57' W 008°30'0 1.5
2018-Jan-25 02:57N 36°57' W 008°30'3 4.0
2018-Jan-25 02:06N 36°58' W 008°25'0 4.0
2018-Jan-25 01:58N 36°58' W 008°25'5 1.2
2018-Jan-24 21:43N 37°02' W 008°29'211.0
2018-Jan-24 21:30N 37°04' W 008°30'4 8.9
2018-Jan-24 21:00N 37°08' W 008°32'0 0.0
2018-Jan-24 15:51N 37°08' W 008°32'0 0.0
2018-Jan-24 15:30N 37°08' W 008°32'0 0.0
2018-Jan-24 15:00N 37°08' W 008°32'0 0.0
2018-Jan-24 14:27N 37°08' W 008°32'0 0.0
2018-Jan-24 13:56N 37°08' W 008°32'0 0.1
2018-Jan-24 13:29N 37°08' W 008°32'2 5.2
2018-Jan-24 13:00N 37°05' W 008°32'4 8.2
2018-Jan-24 12:27N 37°01' W 008°32'15 3.1
2018-Jan-24 07:34N 36°54' W 008°14'0 4.4
2018-Jan-24 07:30N 36°54' W 008°14'1 2.7
2018-Jan-24 06:59N 36°55' W 008°12'0 0.4
2018-Jan-24 06:29N 36°55' W 008°13'4 7.1
2018-Jan-24 05:55N 36°56' W 008°17'2 4.2
2018-Jan-24 05:27N 36°57' W 008°20'2 4.2
2018-Jan-24 04:58N 36°58' W 008°22'2 4.1
2018-Jan-24 04:30N 36°58' W 008°24'2 4.2
2018-Jan-24 04:00N 36°58' W 008°27'1 2.1
2018-Jan-24 03:30N 36°59' W 008°26'2 4.2
2018-Jan-24 02:59N 36°59' W 008°23'2 4.0
2018-Jan-24 02:27N 36°57' W 008°21'2 4.0
2018-Jan-24 02:00N 36°57' W 008°19'2 3.7
2018-Jan-24 01:29N 36°58' W 008°17'1 2.1
2018-Jan-24 00:58N 36°57' W 008°18'2 4.1
2018-Jan-24 00:26N 36°57' W 008°20'2 4.3
2018-Jan-24 00:00N 36°59' W 008°22'2 4.3
2018-Jan-23 23:30N 36°59' W 008°24'2 4.4
2018-Jan-23 23:00N 36°59' W 008°27'510.9
2018-Jan-23 22:30N 37°04' W 008°30'4 7.5
2018-Jan-23 21:59N 37°08' W 008°32'0 0.0
2018-Jan-23 21:23N 37°08' W 008°32'0 0.0
2018-Jan-23 21:00N 37°08' W 008°32'0 0.0
2018-Jan-23 20:30N 37°08' W 008°32'0 0.0
2018-Jan-23 19:58N 37°08' W 008°32'0 0.0
2018-Jan-23 19:29N 37°08' W 008°32'0 0.0
2018-Jan-23 19:00N 37°08' W 008°32'0 0.0
2018-Jan-23 18:22N 37°08' W 008°32'0 0.0
2018-Jan-23 18:00N 37°08' W 008°32'0 0.0
2018-Jan-23 17:24N 37°08' W 008°32'0 0.0
2018-Jan-23 17:00N 37°08' W 008°32'0 0.0
2018-Jan-23 16:28N 37°08' W 008°32'0 0.0
2018-Jan-23 16:00N 37°08' W 008°32'2 4.2
2018-Jan-23 15:30N 37°06' W 008°32'610.9
2018-Jan-23 15:00N 37°01' W 008°34'611.0
2018-Jan-23 14:29N 36°55' W 008°37'13 1.4
2018-Jan-23 05:31N 36°58' W 008°52'210.8
2018-Jan-23 05:20N 36°59' W 008°50'410.7
2018-Jan-23 04:55N 37°00' W 008°45'510.6
2018-Jan-23 04:29N 37°02' W 008°39'510.5
2018-Jan-23 03:59N 37°05' W 008°34'  
Track history (hours):
 
Tides and Currents Weather Stations Pressure Air Temp Water Temp Dewpoint Dewpoint Depression Visibility Wind Speed Wind Dir Waves Ship Positions

Delphinus

Last reported at 2018-Jan-31 17:43 UTC. Time now 2018-Feb-25 08:20 UTC.
Position N 39°21' W 009°22'.
Warning: this ship's position is 24 days out of date.

Length 28 m; draft 4.2 m.

Type: Fishing. MMSI: 263410880.

Date/timePositionNaut miles runAvg speedWind from/ knotsBaromVisibWave heightAir tempDewpointWater temp
2018-Jan-31 17:43N 39°21' W 009°22'0 0.2
2018-Jan-31 17:30N 39°21' W 009°22'0 0.0
2018-Jan-31 17:00N 39°21' W 009°22'0 0.0
2018-Jan-31 16:26N 39°21' W 009°22'0 0.0
2018-Jan-31 16:00N 39°21' W 009°22'0 0.0
2018-Jan-31 15:30N 39°21' W 009°22'0 0.0
2018-Jan-31 14:59N 39°21' W 009°22'0 0.0
2018-Jan-31 14:30N 39°21' W 009°22'13 8.7
2018-Jan-31 13:00N 39°09' W 009°28'510.5
2018-Jan-31 12:30N 39°04' W 009°31'510.7
2018-Jan-31 12:00N 38°60' W 009°34'3 6.3
2018-Jan-31 11:30N 38°57' W 009°36'2 4.2
2018-Jan-31 11:00N 38°58' W 009°38'2 3.7
2018-Jan-31 10:30N 38°59' W 009°41'2 4.4
2018-Jan-31 10:00N 38°57' W 009°41'2 4.4
2018-Jan-31 09:30N 38°55' W 009°42'2 4.8
2018-Jan-31 09:00N 38°53' W 009°45'2 3.6
2018-Jan-31 08:30N 38°52' W 009°43'2 4.1
2018-Jan-31 08:00N 38°51' W 009°41'2 3.9
2018-Jan-31 07:30N 38°49' W 009°40'2 3.2
2018-Jan-31 07:00N 38°48' W 009°39'1 1.9
2018-Jan-31 06:30N 38°47' W 009°38'3 5.3
2018-Jan-31 06:00N 38°44' W 009°37'4 7.1
2018-Jan-31 05:30N 38°41' W 009°36'4 7.3
2018-Jan-31 05:00N 38°38' W 009°34'4 7.6
2018-Jan-31 04:30N 38°34' W 009°33'4 8.7
2018-Jan-31 04:00N 38°30' W 009°31'510.0
2018-Jan-31 03:30N 38°25' W 009°29'510.4
2018-Jan-31 03:00N 38°20' W 009°27'510.2
2018-Jan-31 02:30N 38°15' W 009°25'510.4
2018-Jan-31 02:00N 38°10' W 009°23'510.3
2018-Jan-31 01:30N 38°05' W 009°21'510.5
2018-Jan-31 01:00N 38°00' W 009°19'1010.3
2018-Jan-31 00:00N 37°51' W 009°15'510.3
2018-Jan-30 23:30N 37°46' W 009°13'4 7.0
2018-Jan-30 23:00N 37°42' W 009°11'2 3.1
2018-Jan-30 22:30N 37°41' W 009°12'4 3.9
2018-Jan-30 21:27N 37°37' W 009°11'4 4.5
2018-Jan-30 20:35N 37°33' W 009°11'0 2.8
2018-Jan-30 20:30N 37°33' W 009°11'39 2.1
2018-Jan-30 01:45N 37°01' W 008°44'310.6
2018-Jan-30 01:30N 37°02' W 008°41'510.7
2018-Jan-30 01:00N 37°05' W 008°35'4 8.3
2018-Jan-30 00:29N 37°08' W 008°32'0 0.1
2018-Jan-29 23:59N 37°08' W 008°32'0 0.0
2018-Jan-29 23:31N 37°08' W 008°32'0 0.0
2018-Jan-29 23:00N 37°08' W 008°32'0 0.0
2018-Jan-29 22:30N 37°08' W 008°32'0 0.0
2018-Jan-29 22:00N 37°08' W 008°32'0 0.0
2018-Jan-29 21:30N 37°08' W 008°32'0 0.0
2018-Jan-29 21:00N 37°08' W 008°32'0 0.0
2018-Jan-29 20:30N 37°08' W 008°32'0 0.0
2018-Jan-29 20:00N 37°08' W 008°32'0 0.0
2018-Jan-29 19:30N 37°08' W 008°32'0 0.0
2018-Jan-29 19:00N 37°08' W 008°32'0 0.0
2018-Jan-29 18:30N 37°08' W 008°32'0 0.0
2018-Jan-29 18:00N 37°08' W 008°32'0 0.0
2018-Jan-29 17:27N 37°08' W 008°32'0 0.0
2018-Jan-29 16:59N 37°08' W 008°32'0 0.0
2018-Jan-29 16:30N 37°08' W 008°32'0 0.0
2018-Jan-29 16:00N 37°08' W 008°32'0 0.1
2018-Jan-29 15:30N 37°08' W 008°32'0 0.0
2018-Jan-29 15:00N 37°08' W 008°32'0 0.0
2018-Jan-29 14:30N 37°08' W 008°32'0 0.0
2018-Jan-29 14:00N 37°08' W 008°32'0 0.0
2018-Jan-29 13:30N 37°08' W 008°32'0 0.0
2018-Jan-29 12:59N 37°08' W 008°32'0 0.0
2018-Jan-29 12:26N 37°08' W 008°32'0 0.0
2018-Jan-29 11:59N 37°08' W 008°32'4 8.1
2018-Jan-29 11:27N 37°04' W 008°30'510.6
2018-Jan-29 10:58N 37°00' W 008°25'2 2.6
2018-Jan-29 10:11N 36°58' W 008°27'1 3.9
2018-Jan-29 09:53N 36°58' W 008°28'4 3.9
2018-Jan-29 08:58N 36°56' W 008°31'7 2.1
2018-Jan-29 05:32N 37°03' W 008°32'010.5
2018-Jan-29 05:30N 37°03' W 008°32'5 9.4
2018-Jan-29 05:00N 37°08' W 008°32'0 0.2
2018-Jan-29 04:28N 37°08' W 008°32'0 0.0
2018-Jan-29 04:01N 37°08' W 008°32'0 0.0
2018-Jan-29 03:30N 37°08' W 008°32'0 0.0
2018-Jan-29 02:54N 37°08' W 008°32'0 0.0
2018-Jan-29 01:39N 37°08' W 008°32'0 0.0
2018-Jan-29 01:24N 37°08' W 008°32'0 0.0
2018-Jan-29 00:51N 37°08' W 008°32'0 0.0
2018-Jan-29 00:30N 37°08' W 008°32'4 8.4
2018-Jan-29 00:00N 37°04' W 008°30'510.3
2018-Jan-28 23:30N 36°59' W 008°27'2 3.6
2018-Jan-28 22:58N 36°59' W 008°25'4 3.9
2018-Jan-28 21:50N 36°57' W 008°20'3 0.8
2018-Jan-28 17:52N 36°58' W 008°16'22 0.6
2018-Jan-27 05:29N 36°59' W 008°44'6 9.8
2018-Jan-27 04:53N 37°03' W 008°38'4 9.7
2018-Jan-27 04:30N 37°05' W 008°34'4 0.3
2018-Jan-26 16:25N 37°08' W 008°32'0 0.0
2018-Jan-26 16:00N 37°08' W 008°32'0 0.0
2018-Jan-26 15:24N 37°08' W 008°32'0 0.0
2018-Jan-26 15:00N 37°08' W 008°32'0 0.0
2018-Jan-26 14:27N 37°08' W 008°32'3 6.4
2018-Jan-26 13:56N 37°05' W 008°31'3 0.2
2018-Jan-25 20:08N 37°07' W 008°32'1 2.4
2018-Jan-25 19:54N 37°08' W 008°32'0 0.0
2018-Jan-25 19:30N 37°08' W 008°32'0 0.0
2018-Jan-25 18:58N 37°08' W 008°32'0 0.0
2018-Jan-25 18:30N 37°08' W 008°32'0 0.0
2018-Jan-25 18:00N 37°08' W 008°32'0 0.0
2018-Jan-25 17:29N 37°08' W 008°32'0 0.0
2018-Jan-25 16:58N 37°08' W 008°32'0 0.0
2018-Jan-25 16:30N 37°08' W 008°32'0 0.0
2018-Jan-25 15:56N 37°08' W 008°32'0 0.0
2018-Jan-25 14:48N 37°08' W 008°32'0 0.0
2018-Jan-25 14:27N 37°08' W 008°32'0 0.0
2018-Jan-25 14:00N 37°08' W 008°32'0 0.0
2018-Jan-25 13:29N 37°08' W 008°32'3 7.1
2018-Jan-25 13:00N 37°05' W 008°31'5 0.5
2018-Jan-25 04:15N 37°00' W 008°32'2 4.4
2018-Jan-25 03:50N 37°01' W 008°34'5 6.5
2018-Jan-25 03:03N 36°57' W 008°30'0 1.5
2018-Jan-25 02:57N 36°57' W 008°30'3 4.0
2018-Jan-25 02:06N 36°58' W 008°25'0 4.0
2018-Jan-25 01:58N 36°58' W 008°25'5 1.2
2018-Jan-24 21:43N 37°02' W 008°29'211.0
2018-Jan-24 21:30N 37°04' W 008°30'4 8.9
2018-Jan-24 21:00N 37°08' W 008°32'0 0.0
2018-Jan-24 15:51N 37°08' W 008°32'0 0.0
2018-Jan-24 15:30N 37°08' W 008°32'0 0.0
2018-Jan-24 15:00N 37°08' W 008°32'0 0.0
2018-Jan-24 14:27N 37°08' W 008°32'0 0.0
2018-Jan-24 13:56N 37°08' W 008°32'0 0.1
2018-Jan-24 13:29N 37°08' W 008°32'2 5.2
2018-Jan-24 13:00N 37°05' W 008°32'4 8.2
2018-Jan-24 12:27N 37°01' W 008°32'15 3.1
2018-Jan-24 07:34N 36°54' W 008°14'0 4.4
2018-Jan-24 07:30N 36°54' W 008°14'1 2.7
2018-Jan-24 06:59N 36°55' W 008°12'0 0.4
2018-Jan-24 06:29N 36°55' W 008°13'4 7.1
2018-Jan-24 05:55N 36°56' W 008°17'2 4.2
2018-Jan-24 05:27N 36°57' W 008°20'2 4.2
2018-Jan-24 04:58N 36°58' W 008°22'2 4.1
2018-Jan-24 04:30N 36°58' W 008°24'2 4.2
2018-Jan-24 04:00N 36°58' W 008°27'1 2.1
2018-Jan-24 03:30N 36°59' W 008°26'2 4.2
2018-Jan-24 02:59N 36°59' W 008°23'2 4.0
2018-Jan-24 02:27N 36°57' W 008°21'2 4.0
2018-Jan-24 02:00N 36°57' W 008°19'2 3.7
2018-Jan-24 01:29N 36°58' W 008°17'1 2.1
2018-Jan-24 00:58N 36°57' W 008°18'2 4.1
2018-Jan-24 00:26N 36°57' W 008°20'2 4.3
2018-Jan-24 00:00N 36°59' W 008°22'2 4.3
2018-Jan-23 23:30N 36°59' W 008°24'2 4.4
2018-Jan-23 23:00N 36°59' W 008°27'510.9
2018-Jan-23 22:30N 37°04' W 008°30'4 7.5
2018-Jan-23 21:59N 37°08' W 008°32'0 0.0
2018-Jan-23 21:23N 37°08' W 008°32'0 0.0
2018-Jan-23 21:00N 37°08' W 008°32'0 0.0
2018-Jan-23 20:30N 37°08' W 008°32'0 0.0
2018-Jan-23 19:58N 37°08' W 008°32'0 0.0
2018-Jan-23 19:29N 37°08' W 008°32'0 0.0
2018-Jan-23 19:00N 37°08' W 008°32'0 0.0
2018-Jan-23 18:22N 37°08' W 008°32'0 0.0
2018-Jan-23 18:00N 37°08' W 008°32'0 0.0
2018-Jan-23 17:24N 37°08' W 008°32'0 0.0
2018-Jan-23 17:00N 37°08' W 008°32'0 0.0
2018-Jan-23 16:28N 37°08' W 008°32'0 0.0
2018-Jan-23 16:00N 37°08' W 008°32'2 4.2
2018-Jan-23 15:30N 37°06' W 008°32'610.9
2018-Jan-23 15:00N 37°01' W 008°34'611.0
2018-Jan-23 14:29N 36°55' W 008°37'13 1.4
2018-Jan-23 05:31N 36°58' W 008°52'210.8
2018-Jan-23 05:20N 36°59' W 008°50'410.7
2018-Jan-23 04:55N 37°00' W 008°45'510.6
2018-Jan-23 04:29N 37°02' W 008°39'510.5
2018-Jan-23 03:59N 37°05' W 008°34'  

Dump ship's entire track history